Time;durP1;ratioP1;P1;durP2;ratioP2;P2;SDS_P1;SDS_P2;PMS_P1;PMS_P2;Temp;Humidity;BMP_temperature;BMP_pressure;BME280_temperature;BME280_humidity;BME280_pressure;Samples;Min_cycle;Max_cycle;Signal;HPM_P1;HPM_P2
2021/06/04 00:01:23;;;;;;;3.60;2.65;;;;;;;;;;3555854;40;20475;-71
2021/06/04 00:03:51;;;;;;;2.88;2.60;;;;;;;;;;3555687;40;20744;-71
2021/06/04 00:06:18;;;;;;;2.58;2.38;;;;;;;;;;3559221;40;20383;-71
2021/06/04 00:08:46;;;;;;;3.75;2.60;;;;;;;;;;3564148;40;20786;-71
2021/06/04 00:11:14;;;;;;;3.30;2.53;;;;;;;;;;3566308;40;20660;-71
2021/06/04 00:13:41;;;;;;;2.90;2.70;;;;;;;;;;3563402;40;20378;-71
2021/06/04 00:16:09;;;;;;;3.70;2.50;;;;;;;;;;3562591;40;20767;-71
2021/06/04 00:18:37;;;;;;;2.90;2.00;;;;;;;;;;3566309;40;20531;-72
2021/06/04 00:21:05;;;;;;;2.63;2.42;;;;;;;;;;3567303;40;20810;-71
2021/06/04 00:23:31;;;;;;;2.90;2.70;;;;;;;;;;3567166;40;20366;-71
2021/06/04 00:25:57;;;;;;;3.60;2.45;;;;;;;;;;3567377;40;20452;-71
2021/06/04 00:28:23;;;;;;;3.22;2.40;;;;;;;;;;3567043;40;20467;-71
2021/06/04 00:30:49;;;;;;;3.27;2.50;;;;;;;;;;3567083;40;20362;-71
2021/06/04 00:33:16;;;;;;;2.67;2.47;;;;;;;;;;3567174;40;20378;-71
2021/06/04 00:35:43;;;;;;;3.90;2.65;;;;;;;;;;3567208;40;20636;-71
2021/06/04 00:38:10;;;;;;;2.72;2.40;;;;;;;;;;3572312;40;20408;-71
2021/06/04 00:40:38;;;;;;;2.72;2.53;;;;;;;;;;3576006;40;20368;-71
2021/06/04 00:43:05;;;;;;;2.97;2.37;;;;;;;;;;3567225;40;20374;-71
2021/06/04 00:45:33;;;;;;;2.60;2.30;;;;;;;;;;3564438;40;20401;-71
2021/06/04 00:47:59;;;;;;;3.08;2.42;;;;;;;;;;3567079;40;20384;-70
2021/06/04 00:50:27;;;;;;;2.85;2.45;;;;;;;;;;3567393;40;20354;-71
2021/06/04 00:52:55;;;;;;;2.40;2.20;;;;;;;;;;3557664;40;20398;-71
2021/06/04 00:55:22;;;;;;;2.80;2.50;;;;;;;;;;3565816;40;20409;-71
2021/06/04 00:57:48;;;;;;;2.85;2.40;;;;;;;;;;3566886;40;20740;-71
2021/06/04 01:00:22;;;;;;;2.50;2.30;;;;;;;;;;3568549;40;20370;-72
2021/06/04 01:05:17;;;;;;;3.55;2.35;;;;;;;;;;3587527;40;20812;-73
2021/06/04 01:07:47;;;;;;;2.35;2.15;;;;;;;;;;3578183;40;20551;-72
2021/06/04 01:10:19;;;;;;;2.70;2.50;;;;;;;;;;3578654;40;20400;-73
2021/06/04 01:12:57;;;;;;;2.57;2.37;;;;;;;;;;3588075;40;20431;-73
2021/06/04 01:15:32;;;;;;;2.50;2.20;;;;;;;;;;3576632;40;20396;-73
2021/06/04 01:18:01;;;;;;;2.90;2.40;;;;;;;;;;3571422;40;20414;-73
2021/06/04 01:20:28;;;;;;;4.13;2.63;;;;;;;;;;3567345;40;20409;-73
2021/06/04 01:23:01;;;;;;;2.78;2.58;;;;;;;;;;3578103;40;20353;-73
2021/06/04 01:25:36;;;;;;;2.53;2.03;;;;;;;;;;3568717;40;20432;-74
2021/06/04 01:28:07;;;;;;;2.42;2.25;;;;;;;;;;3567216;40;20476;-73
2021/06/04 01:30:34;;;;;;;2.53;2.38;;;;;;;;;;3568547;40;20419;-73
2021/06/04 01:33:03;;;;;;;2.60;2.28;;;;;;;;;;3567962;40;20400;-73
2021/06/04 01:35:31;;;;;;;2.40;2.20;;;;;;;;;;3578033;40;20341;-74
2021/06/04 01:37:58;;;;;;;3.90;2.28;;;;;;;;;;3578162;40;20349;-74
2021/06/04 01:40:27;;;;;;;3.30;2.50;;;;;;;;;;3568974;40;20433;-72
2021/06/04 01:42:56;;;;;;;2.67;2.45;;;;;;;;;;3576947;40;20410;-74
2021/06/04 01:45:24;;;;;;;2.50;2.30;;;;;;;;;;3588108;40;20393;-73
2021/06/04 01:47:55;;;;;;;3.15;2.50;;;;;;;;;;3586437;40;20709;-72
2021/06/04 01:50:24;;;;;;;2.78;2.50;;;;;;;;;;3588058;40;20335;-73
2021/06/04 01:52:51;;;;;;;3.37;2.60;;;;;;;;;;3568941;40;20360;-73
2021/06/04 01:55:19;;;;;;;2.45;2.25;;;;;;;;;;3577877;40;20352;-73
2021/06/04 01:57:48;;;;;;;2.97;2.40;;;;;;;;;;3577816;40;20471;-73
2021/06/04 02:00:17;;;;;;;3.28;2.28;;;;;;;;;;3587585;40;20358;-73
2021/06/04 02:02:44;;;;;;;3.47;2.40;;;;;;;;;;3587746;40;20435;-73
2021/06/04 02:05:13;;;;;;;3.13;2.42;;;;;;;;;;3585695;40;20410;-73
2021/06/04 02:07:39;;;;;;;3.35;2.60;;;;;;;;;;3578097;40;20375;-73
2021/06/04 02:10:07;;;;;;;2.80;2.60;;;;;;;;;;3577510;40;20396;-73
2021/06/04 02:12:33;;;;;;;2.33;2.13;;;;;;;;;;3578082;40;20356;-72
2021/06/04 02:15:02;;;;;;;3.25;2.40;;;;;;;;;;3578186;40;20726;-73
2021/06/04 02:17:41;;;;;;;2.97;2.53;;;;;;;;;;3568134;40;20404;-73
2021/06/04 02:20:12;;;;;;;2.73;2.13;;;;;;;;;;3578055;40;20434;-73
2021/06/04 02:22:46;;;;;;;2.53;2.33;;;;;;;;;;3577944;40;20371;-73
2021/06/04 02:25:17;;;;;;;2.75;2.55;;;;;;;;;;3576983;40;20416;-73
2021/06/04 02:27:47;;;;;;;2.60;2.38;;;;;;;;;;3576846;40;20807;-73
2021/06/04 02:30:16;;;;;;;3.03;2.10;;;;;;;;;;3576531;40;20400;-73
2021/06/04 02:32:47;;;;;;;2.67;2.30;;;;;;;;;;3576875;40;20400;-74
2021/06/04 02:35:15;;;;;;;2.45;2.25;;;;;;;;;;3578094;40;20781;-73
2021/06/04 02:37:44;;;;;;;2.53;2.30;;;;;;;;;;3578126;40;20687;-74
2021/06/04 02:40:12;;;;;;;4.03;2.70;;;;;;;;;;3576572;40;20509;-73
2021/06/04 02:42:40;;;;;;;3.00;2.47;;;;;;;;;;3577478;40;20340;-73
2021/06/04 02:45:09;;;;;;;2.50;2.30;;;;;;;;;;3578121;40;20665;-74
2021/06/04 02:47:37;;;;;;;3.20;2.40;;;;;;;;;;3577963;40;20637;-74
2021/06/04 02:50:08;;;;;;;2.95;2.70;;;;;;;;;;3576677;40;20458;-73
2021/06/04 02:52:35;;;;;;;2.55;2.33;;;;;;;;;;3588161;40;20360;-77
2021/06/04 02:55:03;;;;;;;3.00;2.50;;;;;;;;;;3586942;40;20412;-77
2021/06/04 02:57:31;;;;;;;2.70;2.50;;;;;;;;;;3587200;40;20360;-75
2021/06/04 02:59:57;;;;;;;2.93;2.70;;;;;;;;;;3586963;40;20414;-75
2021/06/04 03:02:26;;;;;;;2.78;2.58;;;;;;;;;;3587012;40;20744;-75
2021/06/04 03:04:53;;;;;;;3.77;2.67;;;;;;;;;;3586872;40;20769;-77
2021/06/04 03:07:24;;;;;;;3.45;2.45;;;;;;;;;;3585219;40;20380;-75
2021/06/04 03:09:50;;;;;;;3.10;2.35;;;;;;;;;;3577207;40;20382;-77
2021/06/04 03:12:19;;;;;;;2.57;2.37;;;;;;;;;;3577014;40;20342;-76
2021/06/04 03:14:47;;;;;;;2.83;2.10;;;;;;;;;;3568679;40;20735;-76
2021/06/04 03:17:14;;;;;;;3.10;2.53;;;;;;;;;;3568256;40;20744;-75
2021/06/04 03:19:40;;;;;;;2.22;2.13;;;;;;;;;;3569069;40;20404;-76
2021/06/04 03:22:08;;;;;;;3.25;2.50;;;;;;;;;;3567754;40;20806;-77
2021/06/04 03:24:38;;;;;;;2.83;2.57;;;;;;;;;;3576843;40;20436;-75
2021/06/04 03:27:05;;;;;;;2.38;2.17;;;;;;;;;;3566700;40;20391;-77
2021/06/04 03:29:31;;;;;;;2.97;2.67;;;;;;;;;;3556730;40;20397;-76
2021/06/04 03:31:59;;;;;;;2.60;2.35;;;;;;;;;;3567281;40;20359;-76
2021/06/04 03:36:55;;;;;;;2.63;2.15;;;;;;;;;;3597497;39;20433;-77
2021/06/04 03:39:22;;;;;;;3.58;2.53;;;;;;;;;;3576602;40;20389;-77
2021/06/04 03:41:51;;;;;;;3.03;2.72;;;;;;;;;;3577896;40;20377;-77
2021/06/04 03:44:17;;;;;;;2.85;2.55;;;;;;;;;;3577781;40;20382;-77
2021/06/04 03:46:44;;;;;;;3.15;2.58;;;;;;;;;;3578386;40;20353;-77
2021/06/04 03:49:10;;;;;;;2.70;2.33;;;;;;;;;;3578308;40;20781;-76
2021/06/04 03:51:38;;;;;;;2.10;2.00;;;;;;;;;;3577884;40;20357;-80
2021/06/04 03:54:06;;;;;;;3.03;2.55;;;;;;;;;;3578156;40;20457;-76
2021/06/04 03:56:32;;;;;;;2.85;2.50;;;;;;;;;;3577787;40;20408;-79
2021/06/04 03:59:00;;;;;;;2.85;2.65;;;;;;;;;;3567852;40;20392;-76
2021/06/04 04:01:29;;;;;;;2.80;2.60;;;;;;;;;;3567970;40;20407;-76
2021/06/04 04:03:55;;;;;;;2.88;2.45;;;;;;;;;;3567869;40;20459;-77
2021/06/04 04:06:21;;;;;;;3.53;2.77;;;;;;;;;;3567983;40;20457;-77
2021/06/04 04:08:47;;;;;;;3.25;2.55;;;;;;;;;;3558459;40;20444;-77
2021/06/04 04:11:14;;;;;;;2.88;2.60;;;;;;;;;;3577203;40;20374;-77
2021/06/04 04:13:40;;;;;;;2.83;2.53;;;;;;;;;;3569427;40;20430;-77
2021/06/04 04:16:08;;;;;;;2.85;2.65;;;;;;;;;;3569342;40;20402;-77
2021/06/04 04:18:34;;;;;;;4.13;2.67;;;;;;;;;;3578315;40;20416;-76
2021/06/04 04:21:03;;;;;;;3.08;2.78;;;;;;;;;;3578111;40;20369;-76
2021/06/04 04:23:30;;;;;;;2.95;2.45;;;;;;;;;;3577530;40;20366;-76
2021/06/04 04:25:57;;;;;;;2.88;2.63;;;;;;;;;;3568654;40;20667;-77
2021/06/04 04:28:24;;;;;;;3.33;2.83;;;;;;;;;;3575591;40;20423;-77
2021/06/04 04:30:51;;;;;;;2.45;2.30;;;;;;;;;;3577175;40;20361;-77
2021/06/04 04:33:18;;;;;;;3.00;2.80;;;;;;;;;;3557084;40;20404;-76
2021/06/04 04:35:45;;;;;;;3.22;2.97;;;;;;;;;;3562101;40;20374;-76
2021/06/04 04:38:17;;;;;;;4.10;2.70;;;;;;;;;;3575496;40;20422;-76
2021/06/04 04:40:44;;;;;;;2.60;2.40;;;;;;;;;;3577094;40;20378;-76
2021/06/04 04:43:10;;;;;;;3.28;2.67;;;;;;;;;;3576934;40;20652;-75
2021/06/04 04:45:37;;;;;;;3.38;3.08;;;;;;;;;;3576729;40;20370;-76
2021/06/04 04:48:04;;;;;;;3.00;2.75;;;;;;;;;;3576955;40;20366;-76
2021/06/04 04:50:31;;;;;;;5.03;4.63;;;;;;;;;;3568452;40;20416;-75
2021/06/04 04:52:58;;;;;;;6.80;6.20;;;;;;;;;;3567149;40;20524;-75
2021/06/04 04:55:27;;;;;;;6.30;5.70;;;20.20;99.90;;;;;;3576328;40;20350;-75
2021/06/04 04:57:53;;;;;;;5.70;5.22;;;;;;;;;;3574089;40;20366;-75
2021/06/04 05:00:22;;;;;;;4.05;3.72;;;;;;;;;;3573265;40;20350;-74
2021/06/04 05:02:49;;;;;;;4.65;4.18;;;;;;;;;;3573295;40;20534;-76
2021/06/04 05:05:15;;;;;;;5.30;4.28;;;;;;;;;;3592391;40;20374;-74
2021/06/04 05:07:43;;;;;;;4.43;2.97;;;;;;;;;;3594164;40;20402;-75
2021/06/04 05:10:10;;;;;;;3.03;2.72;;;;;;;;;;3593608;40;20798;-74
2021/06/04 05:12:36;;;;;;;3.80;2.72;;;;;;;;;;3592884;40;20400;-74
2021/06/04 05:15:06;;;;;;;3.57;3.00;;;;;;;;;;3582954;40;20536;-75
2021/06/04 05:17:32;;;;;;;3.10;2.53;;;;;;;;;;3582997;40;20372;-75
2021/06/04 05:19:58;;;;;;;4.20;2.78;;;;;;;;;;3572541;40;20794;-76
2021/06/04 05:22:25;;;;;;;2.83;2.57;;;;;;;;;;3573539;40;20370;-75
2021/06/04 05:24:53;;;;;;;3.00;2.70;;;;;;;;;;3571651;40;20389;-75
2021/06/04 05:27:19;;;;;;;3.40;3.00;;;;;;;;;;3571903;40;20366;-75
2021/06/04 05:29:45;;;;;;;3.72;2.97;;;;;;;;;;3571425;40;20405;-75
2021/06/04 05:32:11;;;;;;;3.40;2.60;;;;;;;;;;3571541;40;20370;-75
2021/06/04 05:34:41;;;;;;;3.93;2.97;;;;;;;;;;3570821;40;20506;-75
2021/06/04 05:37:07;;;;;;;4.20;3.47;;;;;;;;;;3571100;40;20418;-75
2021/06/04 05:39:34;;;;;;;3.10;2.78;;;;;;;;;;3561270;40;21373;-75
2021/06/04 05:42:03;;;;;;;3.30;3.00;;;;;;;;;;3561133;40;20401;-74
2021/06/04 05:44:30;;;;;;;3.40;3.10;;;;;;;;;;3561474;40;20403;-75
2021/06/04 05:46:58;;;;;;;3.92;2.97;;;;;;;;;;3569972;40;20394;-75
2021/06/04 05:49:24;;;;;;;3.28;2.65;;;;;;;;;;3571485;40;20346;-74
2021/06/04 05:51:51;;;;;;;3.90;2.65;;;;;;;;;;3579551;40;20372;-76
2021/06/04 05:54:17;;;;;;;3.58;3.28;;;;;;;;;;3579476;40;20386;-75
2021/06/04 05:56:44;;;;;;;4.10;3.70;;;;;;;;;;3572500;40;20370;-75
2021/06/04 05:59:13;;;;;;;4.15;3.28;;;;;;;;;;3574222;40;20412;-75
2021/06/04 06:01:40;;;;;;;3.42;3.13;;;;;;;;;;3582937;40;20812;-75
2021/06/04 06:04:06;;;;;;;3.40;3.13;;;;;;;;;;3582779;40;20356;-76
2021/06/04 06:06:33;;;;;;;3.70;3.40;;;;;;;;;;3583348;40;20379;-75
2021/06/04 06:08:59;;;;;;;4.97;2.88;;;;;;;;;;3583422;40;20773;-75
2021/06/04 06:11:27;;;;;;;3.47;2.90;;;;;;;;;;3580578;40;20710;-75
2021/06/04 06:13:53;;;;;;;3.20;2.88;;;;;;;;;;3579452;40;20724;-76
2021/06/04 06:16:21;;;;;;;3.33;2.78;;;;;;;;;;3566748;40;20798;-75
2021/06/04 06:18:48;;;;;;;3.65;3.15;;;;;;;;;;3572009;40;20417;-73
2021/06/04 06:21:14;;;;;;;3.05;2.78;;;;;;;;;;3578790;40;20420;-74
2021/06/04 06:23:41;;;;;;;3.40;3.10;;;;;;;;;;3561402;40;20453;-74
2021/06/04 06:26:08;;;;;;;3.30;2.90;;;;;;;;;;3574144;40;20406;-75
2021/06/04 06:28:35;;;;;;;3.30;2.85;;;;;;;;;;3572127;40;20432;-75
2021/06/04 06:31:02;;;;;;;3.20;2.50;;;;;;;;;;3570908;40;20396;-76
2021/06/04 06:33:29;;;;;;;4.03;3.03;;;;;;;;;;3571008;40;20393;-75
2021/06/04 06:35:58;;;;;;;3.03;2.83;;;21.50;97.70;;;;;;3571168;40;20405;-75
2021/06/04 06:38:26;;;;;;;2.60;2.40;;;21.60;97.90;;;;;;3572294;40;20470;-75
2021/06/04 06:40:52;;;;;;;2.80;2.60;;;;;;;;;;3572481;40;20483;-74
2021/06/04 06:43:19;;;;;;;2.53;2.33;;;;;;;;;;3585889;40;20378;-75
2021/06/04 06:45:46;;;;;;;3.60;3.07;;;;;;;;;;3576726;40;20407;-73
2021/06/04 06:48:12;;;;;;;2.90;2.60;;;;;;;;;;3582391;40;20370;-74
2021/06/04 06:50:42;;;;;;;3.17;2.88;;;;;;;;;;3578503;40;20366;-73
2021/06/04 06:53:09;;;;;;;3.22;2.92;;;;;;;;;;3579667;40;20365;-72
2021/06/04 06:55:35;;;;;;;8.20;3.00;;;;;;;;;;3579582;40;20407;-72
2021/06/04 06:58:02;;;;;;;6.33;3.30;;;;;;;;;;3577492;40;20450;-73
2021/06/04 07:00:30;;;;;;;7.30;3.85;;;;;;;;;;3577739;40;20357;-72
2021/06/04 07:02:56;;;;;;;9.88;4.18;;;;;;;;;;3577997;40;20432;-73
2021/06/04 07:05:23;;;;;;;9.27;4.55;;;;;;;;;;3577228;40;20700;-73
2021/06/04 07:07:50;;;;;;;5.83;4.13;;;;;;;;;;3578392;40;20384;-73
2021/06/04 07:10:26;;;;;;;5.07;4.57;;;;;;;;;;3579073;40;20376;-73
2021/06/04 07:12:53;;;;;;;4.60;4.20;;;;;;;;;;3568234;40;20735;-74
2021/06/04 07:15:20;;;;;;;3.92;3.63;;;;;;;;;;3578369;40;20646;-72
2021/06/04 07:17:46;;;;;;;3.60;3.33;;;;;;;;;;3579164;40;20420;-72
2021/06/04 07:20:14;;;;;;;3.25;2.95;;;;;;;;;;3579094;40;20370;-72
2021/06/04 07:22:41;;;;;;;4.05;3.05;;;21.50;98.10;;;;;;3578277;40;20451;-72
2021/06/04 07:25:14;;;;;;;3.13;2.83;;;;;;;;;;3578705;40;20392;-71
2021/06/04 07:27:40;;;;;;;3.40;2.70;;;;;;;;;;3576431;40;20854;-73
2021/06/04 07:30:10;;;;;;;2.90;2.70;;;;;;;;;;3568183;40;20393;-74
2021/06/04 07:32:36;;;;;;;2.80;2.50;;;;;;;;;;3576684;40;20380;-71
2021/06/04 07:35:03;;;;;;;3.22;2.80;;;22.40;98.70;;;;;;3577833;40;20360;-71
2021/06/04 07:37:30;;;;;;;3.97;2.90;;;23.60;95.80;;;;;;3577896;40;20376;-71
2021/06/04 07:39:56;;;;;;;8.10;3.30;;;23.60;95.80;;;;;;3576185;40;20477;-71
2021/06/04 07:42:23;;;;;;;2.70;2.17;;;23.60;94.90;;;;;;3579793;40;20406;-73
2021/06/04 07:44:50;;;;;;;2.95;2.40;;;;;;;;;;3580104;40;20458;-72
2021/06/04 07:47:16;;;;;;;2.65;2.17;;;;;;;;;;3574966;40;20409;-71
2021/06/04 07:49:45;;;;;;;2.95;2.75;;;23.80;95.40;;;;;;3581394;40;20684;-72
2021/06/04 07:52:11;;;;;;;3.53;2.83;;;24.40;92.70;;;;;;3592467;40;20447;-75
2021/06/04 07:54:38;;;;;;;2.70;2.50;;;24.70;92.80;;;;;;3581522;40;20379;-72
2021/06/04 07:57:05;;;;;;;2.55;2.20;;;24.60;92.60;;;;;;3571986;40;20649;-72
2021/06/04 07:59:32;;;;;;;2.70;2.50;;;24.60;92.50;;;;;;3569947;40;20402;-75
2021/06/04 08:02:00;;;;;;;2.67;2.45;;;;;;;;;;3580293;40;20388;-74
2021/06/04 08:04:27;;;;;;;3.33;2.90;;;;;;;;;;3571808;40;20833;-74
2021/06/04 08:06:53;;;;;;;4.75;2.88;;;;;;;;;;3575946;40;20374;-74
2021/06/04 08:09:20;;;;;;;4.53;2.88;;;;;;;;;;3574663;40;20489;-75
2021/06/04 08:11:47;;;;;;;3.67;2.35;;;;;;;;;;3570536;40;20461;-74
2021/06/04 08:14:16;;;;;;;10.50;2.73;;;;;;;;;;3578495;40;20483;-74
2021/06/04 08:16:45;;;;;;;2.78;2.25;;;24.70;92.60;;;;;;3580169;40;20376;-76
2021/06/04 08:19:12;;;;;;;2.38;2.10;;;;;;;;;;3576101;40;20929;-74
2021/06/04 08:21:41;;;;;;;2.78;2.20;;;25.40;91.70;;;;;;3576886;40;20412;-74
2021/06/04 08:24:08;;;;;;;2.78;2.58;;;25.70;91.80;;;;;;3574347;40;20493;-74
2021/06/04 08:26:34;;;;;;;2.67;2.30;;;25.80;90.80;;;;;;3578519;40;20437;-75
2021/06/04 08:29:03;;;;;;;2.65;1.92;;;25.70;91.00;;;;;;3558398;40;20400;-74
2021/06/04 08:31:29;;;;;;;4.43;2.45;;;25.70;90.60;;;;;;3573893;40;20393;-75
2021/06/04 08:33:57;;;;;;;2.15;2.05;;;25.80;90.90;;;;;;3578557;40;20382;-75
2021/06/04 08:36:25;;;;;;;5.82;2.70;;;;;;;;;;3590222;40;20374;-75
2021/06/04 08:38:55;;;;;;;3.03;2.23;;;25.90;91.50;;;;;;3589542;40;20366;-74
2021/06/04 08:41:30;;;;;;;3.10;2.80;;;26.10;90.00;;;;;;3590035;40;20667;-75
2021/06/04 08:44:15;;;;;;;2.17;1.85;;;26.20;90.40;;;;;;3590036;40;20763;-74
2021/06/04 08:46:43;;;;;;;4.90;2.80;;;;;;;;;;3563626;40;20385;-75
2021/06/04 08:49:14;;;;;;;4.07;2.90;;;;;;;;;;3591914;40;20402;-75
2021/06/04 08:51:44;;;;;;;3.63;2.23;;;;;;;;;;3589964;40;20465;-74
2021/06/04 08:54:29;;;;;;;3.47;2.78;;;;;;;;;;3586665;40;20403;-74
2021/06/04 08:56:57;;;;;;;3.38;3.03;;;;;;;;;;3587458;40;20382;-75
2021/06/04 08:59:25;;;;;;;3.83;2.92;;;26.10;91.20;;;;;;3587775;40;20529;-74
2021/06/04 09:01:53;;;;;;;3.05;2.60;;;26.30;90.50;;;;;;3587151;40;20801;-74
2021/06/04 09:04:24;;;;;;;3.30;3.00;;;26.40;90.30;;;;;;3589281;40;20389;-73
2021/06/04 09:06:53;;;;;;;3.13;2.88;;;;;;;;;;3588184;40;20407;-74
2021/06/04 09:09:24;;;;;;;4.00;3.60;;;;;;;;;;3589149;40;20464;-74
2021/06/04 09:11:52;;;;;;;4.80;3.30;;;;;;;;;;3589243;40;20371;-74
2021/06/04 09:14:19;;;;;;;5.07;4.68;;;26.50;90.70;;;;;;3591891;40;20356;-74
2021/06/04 09:16:53;;;;;;;6.00;5.40;;;;;;;;;;3585253;40;20410;-75
2021/06/04 09:19:25;;;;;;;8.90;6.38;;;;;;;;;;3580168;40;20425;-74
2021/06/04 09:21:51;;;;;;;6.50;5.95;;;;;;;;;;3589810;40;20377;-73
2021/06/04 09:24:28;;;;;;;6.43;5.93;;;26.60;90.00;;;;;;3589402;40;20397;-73
2021/06/04 09:26:55;;;;;;;6.30;5.80;;;26.50;89.60;;;;;;3580248;40;20820;-74
2021/06/04 09:29:24;;;;;;;5.55;5.15;;;26.20;90.80;;;;;;3577201;40;20463;-74
2021/06/04 09:31:52;;;;;;;7.10;6.50;;;;;;;;;;3568238;40;20693;-73
2021/06/04 09:34:32;;;;;;;6.97;6.30;;;;;;;;;;3576341;40;20415;-73
2021/06/04 09:37:00;;;;;;;10.80;6.82;;;;;;;;;;3574574;40;20396;-74
2021/06/04 09:39:29;;;;;;;8.43;5.75;;;;;;;;;;3575766;40;20372;-73
2021/06/04 09:42:05;;;;;;;4.93;4.18;;;;;;;;;;3567669;40;20419;-74
2021/06/04 09:44:31;;;;;;;4.85;4.25;;;;;;;;;;3577730;40;20396;-74
2021/06/04 09:47:00;;;;;;;4.05;3.60;;;;;;;;;;3588515;40;20458;-74
2021/06/04 09:49:28;;;;;;;6.10;3.60;;;;;;;;;;3592096;40;20377;-75
2021/06/04 09:52:08;;;;;;;3.75;3.45;;;;;;;;;;3594238;40;20368;-75
2021/06/04 09:54:34;;;;;;;6.13;2.92;;;;;;;;;;3584853;40;20414;-74
2021/06/04 09:57:06;;;;;;;3.92;2.10;;;;;;;;;;3590580;40;20405;-74
2021/06/04 09:59:32;;;;;;;2.70;2.30;;;;;;;;;;3592976;40;20510;-73
2021/06/04 10:01:58;;;;;;;5.07;3.03;;;;;;;;;;3578498;40;20526;-73
2021/06/04 10:04:27;;;;;;;3.70;2.40;;;26.50;90.80;;;;;;3582583;40;20402;-71
2021/06/04 10:07:02;;;;;;;7.23;2.30;;;;;;;;;;3589167;40;20429;-73
2021/06/04 10:09:30;;;;;;;2.72;1.77;;;;;;;;;;3588123;40;20390;-73
2021/06/04 10:12:01;;;;;;;3.15;2.08;;;;;;;;;;3591248;40;20621;-74
2021/06/04 10:17:38;;;;;;;2.60;1.58;;;;;;;;;;3590750;40;20770;-73
2021/06/04 10:20:21;;;;;;;2.55;1.52;;;;;;;;;;3587429;40;20383;-74
2021/06/04 10:22:49;;;;;;;2.78;1.30;;;;;;;;;;3592225;40;20393;-74
2021/06/04 10:25:17;;;;;;;1.13;1.00;;;;;;;;;;3582779;40;20500;-75
2021/06/04 10:27:49;;;;;;;1.70;1.20;;;;;;;;;;3583241;40;20404;-74
2021/06/04 10:30:17;;;;;;;3.20;1.20;;;;;;;;;;3588679;40;20388;-75
2021/06/04 10:32:48;;;;;;;1.90;0.98;;;;;;;;;;3589778;40;20392;-76
2021/06/04 10:35:20;;;;;;;2.13;1.13;;;;;;;;;;3594955;40;20369;-75
2021/06/04 10:37:52;;;;;;;2.72;0.93;;;;;;;;;;3583196;40;20396;-72
2021/06/04 10:40:20;;;;;;;1.42;1.25;;;;;;;;;;3580841;40;20394;-74
2021/06/04 10:42:54;;;;;;;3.23;1.10;;;;;;;;;;3579569;40;20373;-73
2021/06/04 10:45:24;;;;;;;1.90;1.10;;;28.70;78.40;;;;;;3566763;40;20536;-73
2021/06/04 10:48:16;;;;;;;1.85;0.82;;;27.90;75.80;;;;;;3576210;40;20431;-74
2021/06/04 10:50:46;;;;;;;2.20;1.00;;;;;;;;;;3580304;40;20780;-73
2021/06/04 10:53:17;;;;;;;2.60;0.73;;;;;;;;;;3575475;40;20686;-72
2021/06/04 10:55:45;;;;;;;6.10;1.13;;;;;;;;;;3592041;40;20392;-73
2021/06/04 10:58:16;;;;;;;2.75;0.88;;;;;;;;;;3585075;40;20472;-74
2021/06/04 11:00:45;;;;;;;2.47;1.10;;;;;;;;;;3589044;40;20381;-74
2021/06/04 11:03:13;;;;;;;2.47;0.90;;;;;;;;;;3593120;40;20403;-73
2021/06/04 11:05:45;;;;;;;1.10;1.00;;;;;;;;;;3588725;40;20834;-73
2021/06/04 11:08:23;;;;;;;1.80;0.90;;;;;;;;;;3592878;40;20399;-73
2021/06/04 11:10:55;;;;;;;1.40;0.90;;;;;;;;;;3583157;40;21520;-73
2021/06/04 11:13:28;;;;;;;3.40;0.90;;;;;;;;;;3591188;40;20371;-75
2021/06/04 11:15:57;;;;;;;1.75;0.93;;;;;;;;;;3593503;40;20395;-75
2021/06/04 11:18:31;;;;;;;2.53;0.87;;;;;;;;;;3578990;40;20437;-73
2021/06/04 11:20:59;;;;;;;2.93;1.10;;;;;;;;;;3591027;40;20369;-75
2021/06/04 11:23:29;;;;;;;1.08;0.85;;;;;;;;;;3584055;40;20422;-75
2021/06/04 11:25:57;;;;;;;1.25;0.80;;;;;;;;;;3593027;40;20475;-74
2021/06/04 11:28:37;;;;;;;1.92;0.77;;;;;;;;;;3588121;40;20367;-74
2021/06/04 11:31:06;;;;;;;1.05;0.70;;;;;;;;;;3587162;40;20433;-73
2021/06/04 11:33:33;;;;;;;1.70;0.60;;;;;;;;;;3588129;40;20397;-72
2021/06/04 11:36:09;;;;;;;2.85;0.90;;;27.70;75.80;;;;;;3577948;40;20667;-72
2021/06/04 11:38:40;;;;;;;2.20;0.88;;;;;;;;;;3588152;40;20363;-72
2021/06/04 11:41:11;;;;;;;2.60;0.75;;;;;;;;;;3586537;40;20369;-73
2021/06/04 11:43:39;;;;;;;1.70;0.80;;;;;;;;;;3589400;40;20372;-72
2021/06/04 11:46:17;;;;;;;1.45;0.70;;;;;;;;;;3585415;40;20702;-72
2021/06/04 11:48:55;;;;;;;2.03;0.70;;;;;;;;;;3582145;40;20771;-73
2021/06/04 11:51:30;;;;;;;1.90;0.70;;;;;;;;;;3575955;40;20384;-74
2021/06/04 11:54:16;;;;;;;1.92;0.70;;;;;;;;;;3588130;40;20663;-74
2021/06/04 11:56:44;;;;;;;1.60;0.70;;;;;;;;;;3586642;40;20370;-72
2021/06/04 11:59:13;;;;;;;2.55;0.73;;;;;;;;;;3586345;40;20414;-72
2021/06/04 12:01:42;;;;;;;1.77;0.70;;;29.30;67.50;;;;;;3587087;39;20370;-73
2021/06/04 12:04:10;;;;;;;2.40;0.90;;;;;;;;;;3590542;40;20787;-74
2021/06/04 12:06:55;;;;;;;1.95;0.90;;;30.20;63.70;;;;;;3580490;40;20375;-73
2021/06/04 12:09:51;;;;;;;2.78;0.70;;;30.50;63.40;;;;;;3589327;40;20372;-73
2021/06/04 12:12:59;;;;;;;1.60;0.90;;;29.70;65.50;;;;;;3587551;40;20726;-73
2021/06/04 12:15:45;;;;;;;1.52;0.93;;;;;;;;;;3554150;40;20645;-73
2021/06/04 12:18:41;;;;;;;2.25;1.08;;;;;;;;;;3557267;40;20658;-73
2021/06/04 12:21:07;;;;;;;1.67;0.90;;;29.50;66.40;;;;;;3549986;40;20386;-73
2021/06/04 12:23:50;;;;;;;3.03;0.83;;;29.00;64.90;;;;;;3551383;40;20398;-73
2021/06/04 12:26:42;;;;;;;2.45;0.90;;;29.20;63.60;;;;;;3551407;40;20401;-72
2021/06/04 12:29:39;;;;;;;3.55;0.90;;;29.40;63.20;;;;;;3544792;40;20421;-73
2021/06/04 12:32:07;;;;;;;1.17;0.80;;;;;;;;;;3538511;40;20484;-74
2021/06/04 12:34:53;;;;;;;2.55;0.90;;;;;;;;;;3546300;40;20409;-74
2021/06/04 12:37:32;;;;;;;4.43;1.00;;;29.20;62.10;;;;;;3556296;40;20732;-74
2021/06/04 12:40:22;;;;;;;3.95;0.80;;;29.90;64.00;;;;;;3576003;40;20448;-73
2021/06/04 12:43:10;;;;;;;3.10;1.10;;;29.60;61.80;;;;;;3584826;40;20636;-73
2021/06/04 12:45:38;;;;;;;0.98;0.80;;;29.40;63.30;;;;;;3584892;40;20750;-74
2021/06/04 12:48:17;;;;;;;1.83;0.77;;;29.30;63.40;;;;;;3588932;40;20424;-73
2021/06/04 12:50:46;;;;;;;1.58;0.90;;;29.30;63.20;;;;;;3590676;40;20477;-73
2021/06/04 12:53:23;;;;;;;1.07;0.77;;;;;;;;;;3580035;40;20741;-74
2021/06/04 12:55:50;;;;;;;2.17;0.90;;;;;;;;;;3579470;40;20355;-74
2021/06/04 12:58:20;;;;;;;1.52;0.82;;;;;;;;;;3573585;40;20396;-73
2021/06/04 13:00:47;;;;;;;3.30;1.07;;;;;;;;;;3586012;40;20851;-72
2021/06/04 13:03:16;;;;;;;1.93;0.73;;;;;;;;;;3585715;40;20386;-74
2021/06/04 13:05:45;;;;;;;1.55;0.80;;;;;;;;;;3585108;40;20429;-74
2021/06/04 13:08:15;;;;;;;1.55;0.93;;;30.00;60.70;;;;;;3574469;40;20444;-75
2021/06/04 13:10:53;;;;;;;1.50;0.80;;;29.90;60.40;;;;;;3576168;40;20685;-74
2021/06/04 13:13:28;;;;;;;1.30;0.85;;;30.30;59.90;;;;;;3585903;40;20378;-74
2021/06/04 13:15:56;;;;;;;2.50;0.88;;;30.20;59.60;;;;;;3578518;40;20427;-74
2021/06/04 13:18:25;;;;;;;1.30;0.90;;;30.40;61.80;;;;;;3582139;40;20368;-73
2021/06/04 13:20:53;;;;;;;1.63;1.00;;;;;;;;;;3578797;40;20383;-74
2021/06/04 13:23:24;;;;;;;1.15;0.98;;;;;;;;;;3591377;40;20345;-74
2021/06/04 13:26:07;;;;;;;1.30;0.85;;;30.50;59.40;;;;;;3580156;40;20413;-73
2021/06/04 13:28:41;;;;;;;1.55;0.75;;;31.10;58.40;;;;;;3589065;40;20382;-74
2021/06/04 13:31:21;;;;;;;1.73;0.90;;;31.40;58.00;;;;;;3586043;40;20444;-73
2021/06/04 13:33:52;;;;;;;2.97;1.00;;;31.50;56.20;;;;;;3584465;40;20434;-73
2021/06/04 13:36:20;;;;;;;1.75;1.00;;;31.50;58.30;;;;;;3587295;40;20744;-73
2021/06/04 13:38:53;;;;;;;1.95;1.00;;;30.70;57.90;;;;;;3588619;40;20640;-73
2021/06/04 13:41:26;;;;;;;5.03;0.95;;;31.20;58.10;;;;;;3557078;40;20761;-73
2021/06/04 13:43:56;;;;;;;3.10;1.30;;;31.80;57.80;;;;;;3555734;40;20473;-73
2021/06/04 13:46:31;;;;;;;2.72;1.38;;;31.80;57.10;;;;;;3555148;40;20473;-73
2021/06/04 13:49:00;;;;;;;2.75;1.20;;;32.10;56.50;;;;;;3554887;40;20592;-74
2021/06/04 13:51:29;;;;;;;4.23;1.67;;;32.40;56.40;;;;;;3545595;40;20832;-74
2021/06/04 13:53:56;;;;;;;4.10;1.50;;;32.50;55.20;;;;;;3555978;40;20386;-75
2021/06/04 13:56:41;;;;;;;3.05;1.25;;;32.30;55.40;;;;;;3566255;40;20409;-74
2021/06/04 13:59:31;;;;;;;2.97;1.30;;;32.10;56.20;;;;;;3554287;40;20749;-74
2021/06/04 14:02:13;;;;;;;4.50;1.33;;;30.90;59.10;;;;;;3543195;40;20412;-75
2021/06/04 14:04:41;;;;;;;1.80;1.20;;;30.80;59.40;;;;;;3558480;40;20402;-74
2021/06/04 14:07:11;;;;;;;2.53;1.90;;;;;;;;;;3553002;40;20391;-74
2021/06/04 14:09:37;;;;;;;4.70;1.60;;;31.30;58.50;;;;;;3557549;40;20372;-74
2021/06/04 14:12:24;;;;;;;14.83;3.70;;;30.70;58.10;;;;;;3569626;40;20460;-73
2021/06/04 14:14:52;;;;;;;1.70;1.40;;;30.50;58.00;;;;;;3579279;40;20688;-74
2021/06/04 14:17:32;;;;;;;2.58;1.90;;;30.40;57.70;;;;;;3588325;40;20764;-75
2021/06/04 14:20:00;;;;;;;2.00;1.10;;;29.80;56.60;;;;;;3581373;40;20714;-74
2021/06/04 14:22:37;;;;;;;1.95;1.08;;;30.20;58.00;;;;;;3579043;40;20636;-73
2021/06/04 14:25:17;;;;;;;2.40;1.00;;;31.00;56.60;;;;;;3588148;40;20375;-74
2021/06/04 14:27:54;;;;;;;13.68;1.63;;;31.60;55.90;;;;;;3576698;40;20410;-74
2021/06/04 14:30:35;;;;;;;5.03;1.20;;;32.10;54.50;;;;;;3571798;40;20393;-75
2021/06/04 14:33:06;;;;;;;2.33;1.10;;;32.60;53.00;;;;;;3551394;40;20406;-74
2021/06/04 14:35:44;;;;;;;1.10;0.70;;;32.40;54.10;;;;;;3573529;40;20407;-75
2021/06/04 14:38:37;;;;;;;6.22;1.98;;;31.40;55.80;;;;;;3575951;40;20863;-74